Terminal Aerodrome Forecast
Issued by NWS

Home | Current Version | Previous Version | Text Only | Print | Product List | Glossary On
Versions: 1 2 3 4 5 6 7 8 9 10 11 12 13 14 15 16
000
FTUS42 TJSJ 010552
TAFJPS
TAF
TJPS 010552Z 0106/0206 VRB03KT P6SM VCSH BKN050 OVC120
      TEMPO 0108/0111 5SM RA BKN025
     FM011800 13009G15KT P6SM BKN050
     FM012000 13007KT 5SM -RA BKN040
     FM012300 09008KT P6SM OVC050=

USA.gov is the U.S. government's official web portal to all federal, state and local government web resources and services.